Time;durP1;ratioP1;P1;durP2;ratioP2;P2;SDS_P1;SDS_P2;PMS_P1;PMS_P2;Temp;Humidity;BMP_temperature;BMP_pressure;BME280_temperature;BME280_humidity;BME280_pressure;Samples;Min_cycle;Max_cycle;Signal;HPM_P1;HPM_P2
2021/09/15 00:00:12;;;;;;;;;5.75;5.50;;;;;26.00;54.29;100677.06;5058065;28;52418;-41
2021/09/15 00:02:38;;;;;;;;;5.25;4.00;;;;;25.98;54.42;100665.41;5058310;28;51070;-40
2021/09/15 00:05:05;;;;;;;;;5.75;4.25;;;;;25.98;54.33;100673.72;5058331;28;51076;-41
2021/09/15 00:07:31;;;;;;;;;4.00;4.00;;;;;25.97;54.16;100670.13;5050872;28;51183;-42
2021/09/15 00:09:56;;;;;;;;;7.50;5.00;;;;;25.96;54.20;100664.84;5058281;28;51923;-41
2021/09/15 00:12:22;;;;;;;;;3.75;3.75;;;;;25.95;54.43;100664.00;5059004;28;51082;-42
2021/09/15 00:14:47;;;;;;;;;3.25;3.25;;;;;25.94;54.18;100659.53;5058325;28;51126;-40
2021/09/15 00:17:12;;;;;;;;;5.00;5.00;;;;;25.93;54.19;100651.47;5057658;28;51094;-42
2021/09/15 00:19:38;;;;;;;;;4.00;3.75;;;;;25.90;54.27;100653.66;5057302;28;51029;-41
2021/09/15 00:22:03;;;;;;;;;5.00;4.25;;;;;25.90;54.16;100655.63;5058354;28;51052;-41
2021/09/15 00:24:28;;;;;;;;;3.00;3.00;;;;;25.90;53.93;100652.84;5059345;28;51185;-40
2021/09/15 00:26:54;;;;;;;;;2.00;2.00;;;;;25.90;54.31;100659.22;5058647;28;50919;-42
2021/09/15 00:29:19;;;;;;;;;4.25;3.50;;;;;25.88;54.22;100661.44;5058260;28;51251;-42
2021/09/15 00:31:44;;;;;;;;;4.25;3.00;;;;;25.86;53.96;100652.53;5057924;28;51012;-42
2021/09/15 00:34:10;;;;;;;;;4.25;4.25;;;;;25.86;54.31;100657.25;5056614;28;51017;-40
2021/09/15 00:36:35;;;;;;;;;4.50;4.00;;;;;25.85;53.76;100648.09;5057973;28;50907;-41
2021/09/15 00:39:00;;;;;;;;;3.25;2.75;;;;;25.85;54.23;100644.47;5057251;28;51273;-45
2021/09/15 00:41:26;;;;;;;;;4.00;3.00;;;;;25.83;53.85;100641.94;5057748;28;51260;-44
2021/09/15 00:44:08;;;;;;;;;5.75;5.00;;;;;25.83;54.14;100635.56;5058468;28;51666;-46
2021/09/15 00:46:35;;;;;;;;;4.00;3.00;;;;;25.82;54.20;100628.34;5049582;28;51140;-41
2021/09/15 00:49:00;;;;;;;;;4.00;3.00;;;;;25.81;54.09;100630.28;5057446;28;51849;-41
2021/09/15 00:51:28;;;;;;;;;4.25;4.00;;;;;25.81;54.12;100635.81;5057463;28;51310;-41
2021/09/15 00:53:54;;;;;;;;;4.75;3.00;;;;;25.81;54.21;100640.53;5057364;28;50962;-40
2021/09/15 00:56:19;;;;;;;;;3.75;3.75;;;;;25.79;54.11;100635.25;5057934;28;51165;-41
2021/09/15 00:58:45;;;;;;;;;3.50;3.50;;;;;25.79;54.21;100639.97;5056576;28;52217;-41
2021/09/15 01:01:10;;;;;;;;;3.75;3.00;;;;;25.79;54.03;100632.47;5055714;28;50970;-40
2021/09/15 01:03:36;;;;;;;;;5.25;5.25;;;;;25.77;53.89;100623.59;5057290;28;51053;-45
2021/09/15 01:06:01;;;;;;;;;3.75;3.75;;;;;25.75;54.11;100628.56;5057690;28;51007;-41
2021/09/15 01:08:28;;;;;;;;;4.25;4.25;;;;;25.76;54.46;100637.72;5056894;28;51008;-43
2021/09/15 01:10:54;;;;;;;;;4.75;4.75;;;;;25.75;54.70;100634.13;5057318;28;50977;-41
2021/09/15 01:13:20;;;;;;;;;4.25;4.25;;;;;25.75;54.33;100636.91;5057785;28;51085;-43
2021/09/15 01:15:45;;;;;;;;;6.75;4.75;;;;;25.74;54.28;100640.78;5057942;28;50927;-43
2021/09/15 01:18:15;;;;;;;;;5.00;3.75;;;;;25.73;54.66;100635.47;5056852;28;52433;-44
2021/09/15 01:20:41;;;;;;;;;6.00;5.00;;;;;25.72;54.37;100637.41;5056671;28;51248;-41
2021/09/15 01:23:06;;;;;;;;;5.00;4.25;;;;;25.71;54.25;100638.50;5055620;28;51515;-47
2021/09/15 01:25:32;;;;;;;;;3.00;3.00;;;;;25.69;54.40;100635.13;5057602;28;50929;-42
2021/09/15 01:27:57;;;;;;;;;4.25;3.50;;;;;25.70;54.55;100622.97;5057928;28;53925;-43
2021/09/15 01:30:22;;;;;;;;;3.00;3.00;;;;;25.69;54.63;100624.03;5056740;28;50813;-41
2021/09/15 01:32:48;;;;;;;;;5.00;5.00;;;;;25.68;54.41;100625.13;5056896;28;50913;-41
2021/09/15 01:35:13;;;;;;;;;6.75;5.25;;;;;25.69;54.50;100628.75;5057385;28;51019;-41
2021/09/15 01:37:39;;;;;;;;;7.00;5.25;;;;;25.66;54.60;100624.56;5056549;28;51046;-41
2021/09/15 01:40:05;;;;;;;;;6.50;5.25;;;;;25.66;54.84;100624.56;5046861;28;51024;-42
2021/09/15 01:42:30;;;;;;;;;6.00;4.75;;;;;25.66;54.71;100630.09;5057048;28;51010;-46
2021/09/15 01:44:56;;;;;;;;;7.00;4.75;;;;;25.65;54.50;100627.59;5057004;28;51176;-46
2021/09/15 01:47:21;;;;;;;;;5.00;5.00;;;;;25.65;54.57;100627.59;5056666;28;51315;-64
2021/09/15 01:49:47;;;;;;;;;5.75;3.50;;;;;25.63;54.59;100619.50;5056746;28;50964;-55
2021/09/15 01:52:14;;;;;;;;;6.00;3.25;;;;;25.63;54.71;100628.69;5056550;28;51007;-51
2021/09/15 01:54:40;;;;;;;;;5.00;5.00;;;;;25.63;54.64;100625.06;5057190;28;51154;-41
2021/09/15 01:57:06;;;;;;;;;8.00;5.50;;;;;25.62;54.64;100617.84;5056274;28;51065;-40
2021/09/15 01:59:31;;;;;;;;;7.25;6.00;;;;;25.60;54.77;100620.88;5055683;28;52235;-41
2021/09/15 02:01:57;;;;;;;;;5.25;4.75;;;;;25.61;54.92;100625.34;5056480;28;51697;-43
2021/09/15 02:04:22;;;;;;;;;6.25;5.50;;;;;25.61;54.75;100622.56;5056620;28;50890;-42
2021/09/15 02:06:47;;;;;;;;;6.75;5.50;;;;;25.59;54.71;100630.31;5055940;28;51673;-43
2021/09/15 02:09:13;;;;;;;;;4.75;4.00;;;;;25.58;54.60;100628.63;5055370;28;51036;-43
2021/09/15 02:11:39;;;;;;;;;6.75;5.75;;;;;25.59;54.81;100632.25;5056901;28;50839;-43
2021/09/15 02:14:04;;;;;;;;;4.75;4.25;;;;;25.59;54.86;100643.34;5057516;28;50931;-41
2021/09/15 02:16:31;;;;;;;;;3.00;3.00;;;;;25.58;54.82;100639.72;5055968;28;51035;-47
2021/09/15 02:18:56;;;;;;;;;6.25;6.25;;;;;25.57;54.68;100643.59;5056340;28;51058;-44
2021/09/15 02:21:22;;;;;;;;;6.00;6.00;;;;;25.57;54.55;100642.78;5056573;28;51057;-41
2021/09/15 02:23:47;;;;;;;;;5.00;4.00;;;;;25.56;54.85;100647.47;5056356;28;51105;-44
2021/09/15 02:26:14;;;;;;;;;8.25;5.75;;;;;25.57;54.90;100642.78;5055881;28;50927;-42
2021/09/15 02:28:39;;;;;;;;;5.00;4.00;;;;;25.56;55.06;100636.38;5051139;28;50998;-42
2021/09/15 02:31:06;;;;;;;;;7.00;5.50;;;;;25.56;55.04;100635.56;5055838;28;51254;-41
2021/09/15 02:33:31;;;;;;;;;6.75;6.00;;;;;25.55;54.96;100625.56;5056171;28;50994;-42
2021/09/15 02:35:57;;;;;;;;;5.25;4.00;;;;;25.55;54.88;100631.94;5055666;28;51424;-41
2021/09/15 02:38:22;;;;;;;;;6.00;5.00;;;;;25.55;55.01;100636.66;5064231;27;50785;-42
2021/09/15 02:40:48;;;;;;;;;5.00;5.00;;;;;25.55;54.91;100633.88;5063191;27;51075;-50
2021/09/15 02:43:13;;;;;;;;;5.00;5.00;;;;;25.54;54.85;100638.59;5060562;28;51307;-42
2021/09/15 02:45:39;;;;;;;;;7.25;5.50;;;;;25.54;55.03;100646.06;5059795;28;51878;-41
2021/09/15 02:48:05;;;;;;;;;5.25;5.25;;;;;25.53;55.33;100653.56;5059647;28;51079;-44
2021/09/15 02:50:31;;;;;;;;;4.50;4.50;;;;;25.53;55.05;100652.69;5059656;28;51088;-48
2021/09/15 02:52:57;;;;;;;;;6.75;4.25;;;;;25.52;55.36;100662.13;5059561;28;51277;-49
2021/09/15 02:55:23;;;;;;;;;5.00;5.00;;;;;25.52;55.00;100656.56;5059178;28;52635;-46
2021/09/15 02:57:48;;;;;;;;;5.25;5.25;;;;;25.50;55.48;100651.28;5058342;28;51045;-40
2021/09/15 03:00:14;;;;;;;;;5.25;5.00;;;;;25.51;55.41;100657.66;5059418;28;51125;-40
2021/09/15 03:02:39;;;;;;;;;4.75;4.75;;;;;25.50;55.29;100659.59;5058215;28;51027;-42
2021/09/15 03:05:05;;;;;;;;;6.75;6.25;;;;;25.50;55.46;100647.69;5059015;28;51903;-42
2021/09/15 03:07:31;;;;;;;;;4.00;4.00;;;;;25.50;55.38;100636.59;5059302;28;51025;-43
2021/09/15 03:09:56;;;;;;;;;4.00;4.00;;;;;25.49;55.41;100646.84;5060031;28;50946;-41
2021/09/15 03:12:22;;;;;;;;;4.50;4.50;;;;;25.49;55.32;100643.22;5059810;28;51024;-42
2021/09/15 03:14:47;;;;;;;;;6.00;6.00;;;;;25.49;55.54;100634.91;5059505;28;51357;-40
2021/09/15 03:17:12;;;;;;;;;5.75;3.25;;;;;25.48;55.69;100639.63;5059234;28;50882;-41
2021/09/15 03:19:38;;;;;;;;;4.00;4.00;;;;;25.48;55.73;100636.00;5058289;28;51111;-41
2021/09/15 03:22:03;;;;;;;;;5.50;4.00;;;;;25.49;55.81;100634.91;5058979;28;51063;-41
2021/09/15 03:24:29;;;;;;;;;6.00;5.75;;;;;25.48;55.61;100634.06;5058667;28;51308;-40
2021/09/15 03:26:54;;;;;;;;;9.00;4.50;;;;;25.48;55.76;100628.53;5063131;28;50999;-42
2021/09/15 03:29:20;;;;;;;;;5.50;5.50;;;;;25.48;55.66;100633.25;5058992;28;51101;-41
2021/09/15 03:31:45;;;;;;;;;5.25;4.50;;;;;25.47;55.62;100632.41;5058701;28;51373;-41
2021/09/15 03:34:10;;;;;;;;;5.50;5.00;;;;;25.47;55.68;100637.13;5058159;28;51948;-44
2021/09/15 03:36:37;;;;;;;;;6.50;5.00;;;;;25.47;55.41;100637.13;5059351;28;51093;-43
2021/09/15 03:39:04;;;;;;;;;8.75;6.00;;;;;25.44;55.58;100632.94;5058817;28;51017;-42
2021/09/15 03:41:29;;;;;;;;;5.75;5.75;;;;;25.47;55.64;100637.13;5058639;28;51188;-42
2021/09/15 03:43:54;;;;;;;;;4.00;4.00;;;;;25.46;55.75;100635.44;5059184;28;51105;-41
2021/09/15 03:46:20;;;;;;;;;7.00;7.00;;;;;25.46;55.76;100643.75;5058506;28;51071;-43
2021/09/15 03:48:45;;;;;;;;;6.00;5.00;;;;;25.45;55.85;100644.88;5057608;28;51758;-42
2021/09/15 03:51:11;;;;;;;;;7.50;5.25;;;;;25.45;55.79;100650.41;5058490;28;51084;-42
2021/09/15 03:53:36;;;;;;;;;2.00;2.00;;;;;25.44;56.17;100644.03;5058730;28;51711;-41
2021/09/15 03:56:02;;;;;;;;;5.50;5.50;;;;;25.45;55.86;100653.19;5057365;28;51097;-40
2021/09/15 03:58:27;;;;;;;;;5.00;5.00;;;;;25.45;55.78;100650.41;5057818;28;51106;-40
2021/09/15 04:00:53;;;;;;;;;5.75;5.25;;;;;25.44;55.62;100654.28;5058926;28;51123;-41
2021/09/15 04:03:18;;;;;;;;;5.00;5.00;;;;;25.44;56.17;100662.59;5057428;28;51671;-41
2021/09/15 04:05:44;;;;;;;;;5.00;5.00;;;;;25.45;55.95;100664.28;5058745;28;50921;-41
2021/09/15 04:08:09;;;;;;;;;8.25;6.50;;;;;25.43;55.86;100659.00;5057501;28;51441;-41
2021/09/15 04:10:34;;;;;;;;;5.75;5.75;;;;;25.43;55.89;100647.91;5058125;28;51050;-40
2021/09/15 04:13:00;;;;;;;;;5.25;5.25;;;;;25.43;55.96;100652.56;5057835;28;52483;-41
2021/09/15 04:15:25;;;;;;;;;5.50;5.50;;;;;25.43;55.71;100638.72;5065392;22;50913;-55
2021/09/15 04:17:50;;;;;;;;;4.00;4.00;;;;;25.43;55.96;100655.34;5044216;28;51047;-55
2021/09/15 04:20:16;;;;;;;;;5.50;5.00;;;;;25.41;55.82;100655.63;5036413;28;51288;-55
2021/09/15 04:22:42;;;;;;;;;6.25;6.00;;;;;25.42;55.92;100659.22;5017358;28;51819;-55
2021/09/15 04:33:25;;;;;;;;;9.00;6.50;;;;;25.39;55.80;100657.81;5036902;28;51448;-55
2021/09/15 04:35:50;;;;;;;;;7.00;4.50;;;;;25.40;55.95;100661.44;5031090;28;51070;-55
2021/09/15 04:38:15;;;;;;;;;7.25;5.25;;;;;25.38;56.03;100663.63;5029640;28;51186;-54
2021/09/15 04:40:41;;;;;;;;;5.25;5.25;;;;;25.37;56.16;100657.25;5036332;28;51115;-55
2021/09/15 04:43:06;;;;;;;;;6.25;6.25;;;;;25.38;56.06;100647.00;5033223;28;52208;-55
2021/09/15 04:45:31;;;;;;;;;6.75;6.00;;;;;25.35;55.83;100651.13;5033028;28;51132;-55
2021/09/15 04:47:57;;;;;;;;;7.25;6.00;;;;;25.36;56.07;100649.19;5027215;28;51529;-55
2021/09/15 04:50:22;;;;;;;;;8.00;7.00;;;;;25.35;56.18;100656.66;5018438;28;51126;-55
2021/09/15 04:52:48;;;;;;;;;8.75;8.75;;;;;25.36;55.75;100649.19;5016785;28;51218;-55
2021/09/15 04:55:13;;;;;;;;;5.25;5.25;;;;;25.34;55.96;100646.69;5021405;28;50961;-55
2021/09/15 04:57:38;;;;;;;;;6.25;5.25;;;;;25.33;56.16;100656.94;5033035;28;51124;-55
2021/09/15 05:00:05;;;;;;;;;5.50;5.25;;;;;25.34;55.94;100649.47;5020548;28;51888;-56
2021/09/15 05:02:31;;;;;;;;;8.25;7.00;;;;;25.32;55.86;100651.63;5018036;28;51839;-55
2021/09/15 05:04:56;;;;;;;;;8.50;8.00;;;;;25.32;55.98;100652.50;5018160;28;51001;-54
2021/09/15 05:07:21;;;;;;;;;8.25;5.00;;;;;25.31;55.64;100656.34;5029052;28;51307;-56
2021/09/15 05:09:47;;;;;;;;;6.00;6.00;;;;;25.32;56.16;100657.16;5018756;28;51298;-55
2021/09/15 05:12:12;;;;;;;;;5.25;3.50;;;;;25.32;55.84;100659.94;5029754;28;51891;-55
2021/09/15 05:14:37;;;;;;;;;5.00;5.00;;;;;25.30;56.12;100662.97;5035506;28;51003;-55
2021/09/15 05:17:03;;;;;;;;;7.00;5.00;;;;;25.30;55.79;100657.44;5017708;28;51615;-55
2021/09/15 05:19:28;;;;;;;;;7.25;6.00;;;;;25.30;55.79;100660.19;5029239;28;51182;-56
2021/09/15 05:21:53;;;;;;;;;7.00;6.00;;;;;25.30;55.87;100662.16;5022996;28;51122;-56
2021/09/15 05:24:19;;;;;;;;;9.50;8.00;;;;;25.29;56.02;100669.63;5018015;28;51118;-55
2021/09/15 05:26:44;;;;;;;;;7.25;6.75;;;;;25.29;56.03;100669.63;5027315;28;51094;-55
2021/09/15 05:29:09;;;;;;;;;6.75;6.75;;;;;25.29;55.84;100666.00;5036431;28;51032;-56
2021/09/15 05:31:35;;;;;;;;;5.50;5.00;;;;;25.29;56.03;100669.63;5029735;28;51150;-55
2021/09/15 05:34:00;;;;;;;;;8.50;6.50;;;;;25.29;56.01;100671.56;5032112;28;51257;-55
2021/09/15 05:36:25;;;;;;;;;5.75;5.50;;;;;25.29;55.85;100671.56;5028263;28;51146;-56
2021/09/15 05:38:51;;;;;;;;;7.75;6.00;;;;;25.28;56.12;100676.25;5021882;28;51539;-56
2021/09/15 05:41:16;;;;;;;;;7.00;7.00;;;;;25.27;56.20;100674.59;5016920;28;53614;-55
2021/09/15 05:43:42;;;;;;;;;11.25;9.50;;;;;25.26;56.08;100674.84;5023393;28;50915;-57
2021/09/15 05:46:07;;;;;;;;;18.50;13.50;;;;;25.26;56.44;100678.47;5029806;28;51335;-54
2021/09/15 05:48:32;;;;;;;;;14.25;8.25;;;;;25.25;56.13;100682.34;5029184;28;51255;-53
2021/09/15 05:50:57;;;;;;;;;14.50;13.00;;;;;25.25;56.26;100679.56;5014880;28;52958;-54
2021/09/15 05:53:23;;;;;;;;;16.00;14.50;;;;;25.25;56.39;100684.28;5017023;28;51023;-53
2021/09/15 05:55:48;;;;;;;;;14.00;14.00;;;;;25.22;56.64;100680.09;5027930;28;51422;-53
2021/09/15 05:58:15;;;;;;;;;12.75;10.50;;;;;25.22;56.36;100685.63;5033000;28;51226;-53
2021/09/15 06:00:40;;;;;;;;;11.25;10.50;;;;;25.22;56.54;100682.00;5031834;28;52174;-53
2021/09/15 06:03:06;;;;;;;;;11.25;8.75;;;;;25.22;56.48;100693.09;5029694;28;51084;-52
2021/09/15 06:05:31;;;;;;;;;9.75;7.75;;;;;25.20;56.87;100693.34;5023937;28;51201;-53
2021/09/15 06:07:56;;;;;;;;;12.00;10.75;;;;;25.20;56.59;100698.88;5017952;28;51185;-55
2021/09/15 06:10:22;;;;;;;;;15.25;11.25;;;;;25.19;56.72;100699.16;5017861;28;51952;-54
2021/09/15 06:12:47;;;;;;;;;13.50;10.50;;;;;25.19;56.68;100697.22;5024298;28;51147;-53
2021/09/15 06:15:12;;;;;;;;;13.25;9.00;;;;;25.21;57.03;100699.72;5024016;28;51168;-54
2021/09/15 06:17:38;;;;;;;;;12.75;10.75;;;;;25.23;56.81;100705.88;5017882;28;51139;-54
2021/09/15 06:20:04;;;;;;;;;11.25;10.75;;;;;25.23;56.98;100703.94;5021666;28;51123;-57
2021/09/15 06:22:29;;;;;;;;;11.25;11.25;;;;;25.24;56.98;100705.63;5023539;28;51119;-55
2021/09/15 06:24:55;;;;;;;;;14.75;13.75;;;;;25.25;57.23;100707.28;5030062;28;51096;-56
2021/09/15 06:27:24;;;;;;;;;14.50;14.25;;;;;25.27;57.33;100704.25;5037649;28;51036;-52
2021/09/15 06:29:49;;;;;;;;;13.00;12.25;;;;;25.27;56.98;100702.31;5019404;28;51825;-55
2021/09/15 06:32:21;;;;;;;;;13.50;10.25;;;;;25.29;57.14;100704.81;5029224;28;51128;-56
2021/09/15 06:34:47;;;;;;;;;10.00;9.00;;;;;25.29;57.09;100702.88;5027590;28;50960;-53
2021/09/15 06:37:14;;;;;;;;;12.75;11.00;;;;;25.31;57.31;100700.69;5017412;28;51108;-54
2021/09/15 06:39:41;;;;;;;;;15.50;13.75;;;;;25.32;57.19;100701.53;5031970;28;52659;-55
2021/09/15 06:42:06;;;;;;;;;12.75;10.25;;;;;25.33;57.34;100709.63;5033416;28;51000;-55
2021/09/15 06:44:32;;;;;;;;;13.00;12.00;;;;;25.33;57.03;100709.63;5024096;28;52487;-57
2021/09/15 06:46:57;;;;;;;;;13.25;10.25;;;;;25.35;57.52;100714.06;5022287;28;51387;-55
2021/09/15 06:49:23;;;;;;;;;11.50;11.50;;;;;25.35;57.39;100705.75;5026984;28;51609;-56
2021/09/15 06:51:48;;;;;;;;;12.50;11.25;;;;;25.36;57.44;100712.97;5028873;28;51099;-55
2021/09/15 06:54:13;;;;;;;;;12.25;9.75;;;;;25.36;56.89;100712.97;5021297;28;51140;-53
2021/09/15 06:56:39;;;;;;;;;14.00;11.25;;;;;25.37;57.14;100721.03;5029732;28;50987;-54
2021/09/15 06:59:04;;;;;;;;;13.25;10.50;;;;;25.37;56.98;100717.41;5029560;28;52419;-55
2021/09/15 07:01:30;;;;;;;;;14.75;9.75;;;;;25.37;56.95;100718.25;5029931;28;51053;-54
2021/09/15 07:03:55;;;;;;;;;12.75;9.75;;;;;25.38;57.10;100719.91;5033571;28;51124;-54
2021/09/15 07:06:20;;;;;;;;;10.50;9.25;;;;;25.39;56.84;100723.53;5019614;28;51163;-55
2021/09/15 07:08:48;;;;;;;;;13.25;11.00;;;;;25.36;57.43;100724.06;5033184;28;51770;-55
2021/09/15 07:11:13;;;;;;;;;15.75;13.75;;;;;25.39;56.92;100723.53;5016880;28;51180;-55
2021/09/15 07:13:39;;;;;;;;;15.00;12.75;;;;;25.39;57.02;100717.97;5018235;28;51132;-55
2021/09/15 07:16:04;;;;;;;;;15.00;14.00;;;;;25.40;56.79;100730.75;5024772;28;51162;-55
2021/09/15 07:18:30;;;;;;;;;14.00;12.00;;;;;25.40;56.95;100736.28;5032627;28;52150;-55
2021/09/15 07:20:55;;;;;;;;;16.75;12.50;;;;;25.39;56.73;100735.47;5022860;28;51238;-55
2021/09/15 07:23:21;;;;;;;;;11.50;10.25;;;;;25.40;56.55;100730.75;5031896;28;51264;-55
2021/09/15 07:25:46;;;;;;;;;13.50;12.00;;;;;25.40;56.40;100741.84;5017671;28;51294;-55
2021/09/15 07:28:11;;;;;;;;;11.50;9.75;;;;;25.40;56.68;100744.63;5024029;28;51874;-55
2021/09/15 07:30:37;;;;;;;;;11.25;9.50;;;;;25.40;57.00;100741.84;5030773;28;51206;-56
2021/09/15 07:33:02;;;;;;;;;15.75;12.50;;;;;25.40;56.73;100751.00;5040101;28;51227;-55
2021/09/15 07:35:28;;;;;;;;;13.00;11.75;;;;;25.41;56.77;100754.59;5029544;28;51415;-55
2021/09/15 07:37:53;;;;;;;;;14.25;11.75;;;;;25.40;56.74;100753.78;5035261;28;51800;-55
2021/09/15 07:40:18;;;;;;;;;17.00;13.25;;;;;25.40;56.87;100753.78;5029585;28;51423;-55
2021/09/15 07:42:45;;;;;;;;;14.75;12.75;;;;;25.39;56.72;100743.78;5026125;28;51187;-55
2021/09/15 07:45:12;;;;;;;;;15.00;13.25;;;;;25.39;57.04;100741.00;5028692;28;51183;-56
2021/09/15 07:47:39;;;;;;;;;15.25;15.00;;;;;25.39;56.49;100746.53;5016381;28;51763;-55
2021/09/15 07:50:05;;;;;;;;;17.75;16.25;;;;;25.40;56.58;100744.63;5029322;28;51161;-55
2021/09/15 07:52:30;;;;;;;;;20.75;20.00;;;;;25.40;56.80;100751.00;5033633;28;51093;-54
2021/09/15 07:54:56;;;;;;;;;22.50;21.00;;;;;25.39;56.86;100743.78;5019747;28;51556;-55
2021/09/15 07:57:21;;;;;;;;;24.00;19.25;;;;;25.39;56.87;100759.56;5016826;28;51124;-54
2021/09/15 07:59:46;;;;;;;;;19.00;18.50;;;;;25.39;56.94;100748.47;5021986;28;51177;-55
2021/09/15 08:02:12;;;;;;;;;21.00;18.00;;;;;25.38;56.92;100744.88;5035363;28;51141;-55
2021/09/15 08:04:37;;;;;;;;;16.00;16.00;;;;;25.38;57.02;100757.91;5022812;28;51895;-54
2021/09/15 08:07:03;;;;;;;;;13.25;13.00;;;;;25.38;56.83;100746.81;5022344;28;51886;-55
2021/09/15 08:09:28;;;;;;;;;14.75;14.50;;;;;25.36;57.07;100758.16;5017718;28;51136;-55
2021/09/15 08:11:54;;;;;;;;;13.75;12.00;;;;;25.35;56.72;100752.88;5029754;28;51179;-55
2021/09/15 08:14:19;;;;;;;;;13.25;11.00;;;;;25.35;56.86;100761.19;5023225;28;51309;-55
2021/09/15 08:16:44;;;;;;;;;11.25;10.25;;;;;25.36;56.91;100766.47;5028691;28;51663;-55
2021/09/15 08:19:10;;;;;;;;;11.25;10.25;;;;;25.35;56.74;100762.03;5025320;28;51550;-55
2021/09/15 08:21:35;;;;;;;;;10.50;10.25;;;;;25.35;57.10;100763.97;5031458;28;51753;-55
2021/09/15 08:24:01;;;;;;;;;11.50;8.75;;;;;25.34;57.29;100760.34;5019937;28;51183;-54
2021/09/15 08:26:26;;;;;;;;;9.25;9.25;;;;;25.33;57.18;100775.31;5025579;28;51235;-55
2021/09/15 08:28:52;;;;;;;;;8.25;6.75;;;;;25.30;57.39;100767.50;5024056;28;51511;-56
2021/09/15 08:31:17;;;;;;;;;7.25;7.25;;;;;25.23;57.33;100766.88;5022411;28;51184;-56
2021/09/15 08:33:43;;;;;;;;;7.50;4.25;;;;;25.13;57.67;100767.56;5026753;28;51361;-57
2021/09/15 08:36:08;;;;;;;;;6.75;6.00;;;;;25.03;57.67;100775.72;5027550;28;51135;-56
2021/09/15 08:38:33;;;;;;;;;5.75;4.75;;;;;24.91;58.33;100774.97;5029546;28;51088;-56
2021/09/15 08:40:59;;;;;;;;;6.00;5.25;;;;;24.76;58.81;100778.31;5028224;28;51384;-56
2021/09/15 08:43:25;;;;;;;;;7.00;7.00;;;;;24.57;59.24;100780.47;5029943;28;51183;-56
2021/09/15 08:45:50;;;;;;;;;5.75;5.75;;;;;24.40;59.65;100782.44;5025188;28;51890;-55
2021/09/15 08:48:18;;;;;;;;;7.00;4.00;;;;;24.19;60.18;100782.03;5021483;28;51073;-56
2021/09/15 08:50:46;;;;;;;;;7.00;6.00;;;;;24.01;60.61;100775.84;5024391;28;51929;-55
2021/09/15 08:53:11;;;;;;;;;6.00;5.25;;;;;23.89;61.13;100778.66;5019676;28;51349;-56
2021/09/15 08:55:37;;;;;;;;;6.75;6.00;;;;;23.73;61.84;100787.75;5017828;28;52578;-55
2021/09/15 08:58:02;;;;;;;;;6.75;5.25;;;;;23.57;62.03;100787.41;5021209;28;51875;-56
2021/09/15 09:00:27;;;;;;;;;7.00;5.25;;;;;23.49;62.27;100789.69;5022187;28;51202;-56
2021/09/15 09:02:53;;;;;;;;;8.25;6.00;;;;;23.38;63.08;100796.09;5018141;28;51494;-56
2021/09/15 09:05:19;;;;;;;;;4.75;3.75;;;;;23.31;63.18;100790.69;5024287;28;52005;-56
2021/09/15 09:07:44;;;;;;;;;4.25;3.50;;;;;23.24;63.86;100790.84;5018807;28;51520;-57
2021/09/15 09:10:13;;;;;;;;;3.75;3.75;;;;;23.17;64.02;100789.28;5024547;28;51793;-56
2021/09/15 09:12:40;;;;;;;;;6.75;6.50;;;;;23.11;64.61;100791.06;5020041;28;52070;-57
2021/09/15 09:15:12;;;;;;;;;7.50;7.50;;;;;23.08;64.94;100791.56;5018931;28;51292;-59
2021/09/15 09:17:37;;;;;;;;;7.00;6.75;;;;;23.04;64.44;100791.22;5021032;28;51230;-54
2021/09/15 09:20:13;;;;;;;;;4.75;4.75;;;;;23.00;65.04;100789.97;5021379;28;51267;-57
2021/09/15 09:22:57;;;;;;;;;6.75;6.75;;;;;23.10;64.90;100794.06;5019856;28;51396;-57
2021/09/15 09:25:22;;;;;;;;;7.00;6.00;;;;;23.20;64.95;100791.53;5022943;28;51812;-56
2021/09/15 09:27:47;;;;;;;;;6.75;5.00;;;;;23.23;64.95;100791.03;5022240;28;51266;-55
2021/09/15 09:30:42;;;;;;;;;8.00;7.25;;;;;23.22;64.77;100792.97;5024108;28;51414;-57
2021/09/15 09:33:08;;;;;;;;;8.00;8.00;;;;;23.20;64.97;100795.16;5021160;28;52759;-56
2021/09/15 09:35:39;;;;;;;;;8.50;7.00;;;;;23.20;65.32;100791.53;5020076;28;51991;-55
2021/09/15 09:38:14;;;;;;;;;11.25;8.00;;;;;23.20;65.21;100799.84;5023565;28;52077;-56
2021/09/15 09:41:02;;;;;;;;;6.75;4.25;;;;;23.18;65.20;100804.75;5020283;28;51198;-55
2021/09/15 09:43:30;;;;;;;;;7.75;7.00;;;;;23.19;65.12;100800.91;5019728;28;52373;-56
2021/09/15 09:45:56;;;;;;;;;6.00;6.00;;;;;23.17;65.57;100803.09;5020420;28;51287;-55
2021/09/15 09:48:29;;;;;;;;;5.50;4.50;;;;;23.14;65.44;100803.56;5019762;28;52711;-56
2021/09/15 09:50:54;;;;;;;;;5.00;5.00;;;;;23.13;65.79;100796.34;5019816;28;51155;-58
2021/09/15 09:53:20;;;;;;;;;5.50;4.75;;;;;23.11;65.52;100806.81;5019426;28;51708;-56
2021/09/15 09:55:49;;;;;;;;;5.50;5.50;;;;;23.14;65.85;100803.56;5017664;28;52126;-53
2021/09/15 09:58:23;;;;;;;;;8.00;5.00;;;;;23.18;65.50;100796.47;5020107;28;51155;-55
2021/09/15 10:00:53;;;;;;;;;8.50;6.50;;;;;23.23;65.91;100804.88;5012280;28;51326;-55
2021/09/15 10:03:18;;;;;;;;;5.50;3.50;;;;;23.24;65.23;100799.13;5017327;28;52215;-55
2021/09/15 10:05:44;;;;;;;;;6.00;5.25;;;;;23.30;65.59;100803.66;5022996;28;51925;-52
2021/09/15 10:08:12;;;;;;;;;4.00;4.00;;;;;23.38;65.00;100801.63;5017077;28;51230;-54
2021/09/15 10:10:41;;;;;;;;;5.00;4.75;;;;;23.46;65.33;100804.84;5020839;28;51504;-54
2021/09/15 10:13:09;;;;;;;;;5.00;5.00;;;;;23.53;64.74;100797.25;5020005;28;51393;-56
2021/09/15 10:15:55;;;;;;;;;9.00;7.25;;;;;23.57;64.79;100803.16;5023044;28;51646;-54
2021/09/15 10:18:21;;;;;;;;;7.00;7.00;;;;;23.61;64.69;100802.44;5018136;28;51800;-55
2021/09/15 10:20:51;;;;;;;;;11.25;9.25;;;;;23.64;64.60;100811.31;5025329;28;51102;-55
2021/09/15 10:23:50;;;;;;;;;12.00;9.75;;;;;23.62;64.58;100806.03;5029288;28;51147;-53
2021/09/15 10:26:37;;;;;;;;;8.00;6.50;;;;;23.67;64.49;100811.69;5044650;28;51841;-56
2021/09/15 10:29:15;;;;;;;;;8.25;8.00;;;;;23.72;64.43;100802.66;5022570;28;51102;-55
2021/09/15 10:32:05;;;;;;;;;9.00;7.00;;;;;23.80;63.93;100810.56;5023009;28;51069;-55
2021/09/15 10:34:36;;;;;;;;;8.50;7.50;;;;;23.85;63.77;100805.97;5029660;28;51144;-56
2021/09/15 10:37:11;;;;;;;;;9.75;9.00;;;;;23.92;63.63;100803.06;5027756;28;51051;-56
2021/09/15 10:40:26;;;;;;;;;9.25;8.50;;;;;23.98;63.48;100806.78;5023977;28;51047;-53
2021/09/15 10:42:51;;;;;;;;;12.75;11.25;;;;;24.03;63.46;100799.41;5021832;28;51441;-59
2021/09/15 10:45:23;;;;;;;;;9.25;8.00;;;;;24.08;63.49;100807.81;5021538;28;51471;-56
2021/09/15 10:47:54;;;;;;;;;8.50;8.25;;;;;24.14;63.55;100809.59;5030533;28;51253;-57
2021/09/15 10:50:28;;;;;;;;;8.00;8.00;;;;;24.21;63.62;100819.69;5031649;28;51310;-56
2021/09/15 10:53:02;;;;;;;;;7.25;7.00;;;;;24.26;63.26;100812.28;5016689;28;51306;-56
2021/09/15 10:55:37;;;;;;;;;11.75;9.00;;;;;24.32;63.54;100810.50;5025012;28;51022;-56
2021/09/15 10:58:21;;;;;;;;;8.25;7.75;;;;;24.37;63.32;100814.19;5020257;28;51129;-55
2021/09/15 11:00:48;;;;;;;;;8.00;8.00;;;;;24.44;62.94;100816.81;5017517;28;51541;-56
2021/09/15 11:03:34;;;;;;;;;8.75;6.75;;;;;24.48;63.13;100810.50;5022563;28;51339;-57
2021/09/15 11:06:06;;;;;;;;;8.00;7.75;;;;;24.54;62.93;100819.75;5020085;28;51140;-56
2021/09/15 11:08:34;;;;;;;;;7.25;6.00;;;;;24.58;62.63;100809.84;5032079;28;52591;-56
2021/09/15 11:11:01;;;;;;;;;6.50;5.25;;;;;24.62;62.33;100812.97;5032011;28;51128;-56
2021/09/15 11:13:30;;;;;;;;;10.25;8.25;;;;;24.65;62.53;100805.00;5031624;28;51010;-59
2021/09/15 11:15:55;;;;;;;;;6.00;6.00;;;;;24.70;62.24;100813.41;5028976;28;51385;-58
2021/09/15 11:18:27;;;;;;;;;9.00;7.25;;;;;24.77;61.98;100811.28;5027030;28;51737;-57
2021/09/15 11:20:55;;;;;;;;;10.25;8.00;;;;;24.86;61.87;100808.94;5033008;28;51289;-59
2021/09/15 11:23:25;;;;;;;;;10.00;7.00;;;;;24.93;61.81;100811.56;5027872;28;51354;-58
2021/09/15 11:25:51;;;;;;;;;14.00;8.00;;;;;24.95;61.62;100812.13;5019967;28;51247;-57
2021/09/15 11:28:19;;;;;;;;;9.75;8.50;;;;;24.96;61.65;100811.88;5029634;28;52815;-58